Radar is unstable, so pay attention to the date and time in the image

Latest  Newer  Older  Last 2 hours animation  Current image  Latest image  Summary per 24h (testing)  Summary per 7d (testing) 
Cloud coverage sat images  Infrared sat images 
Real-time lightning map Aurora Forecast

All time is UTC (add 2 hours in wintertime, 3 hours in DST for Latvia local time)

2021/11/30 21:20 EVRA 302120Z 31007KT 270V340 9999 SCT031CB OVC038 M00/M05 Q0987 NOSIG
2021/11/30 21:20 EVLA 302120Z AUTO 33009G21KT 290V020 9999 -RA FEW026/// SCT041/// OVC057/// 01/M04 Q0991
2021/11/30 21:20 EVVA 302120Z AUTO 33015KT 9999 FEW037 OVC046 01/M06 Q0990
2021/11/30 21:20 EYKA 302120Z 29002KT 2000 0150E R26/1400D BR PRFG FEW004 M05/M06 Q0990
2021/11/30 21:20 EYPA 302120Z VRB02KT 9999 FEW038 SCT053 M03/M04 Q0992
2021/11/30 21:20 EYSA 302120Z 28008KT 9999 OVC047 M04/M06 Q0990 NOSIG
2021/11/30 21:20 EYVI 302120Z VRB02KT 0250 R19/0450V0900D FZFG FEW006 M05/M06 Q0989 NOSIG
2021/11/30 16:20 EEKA 301620Z 33022KT 9999 BKN019 M03/M06 Q0986
2021/11/30 21:20 EEKE 302120Z AUTO 34010KT 310V020 9999NDV -SN BKN027 OVC034 M02/M05 Q0988

2021/11/30 21:20 EETN 302120Z 32013KT 9999 DRSN OVC009 M07/M09 Q0984 NOSIG
2021/11/30 21:20 EETU 302120Z AUTO 29012KT 9999 -SN OVC012/// M07/M10 Q0983
   RIGA AIRPORT     EVRA               56 55N  023 58E   10   X     T          6 LV
   LIEPAJA INTL     EVLA        26406  56 31N  021 06E    4   X                8 LV
   VENTPILS         EVVA               57 21N  021 33E    6   X                8 LV
   KAUNAS           EYKA               54 54N  023 55E   77   X     T          6 LT
   PALANGA INTL     EYPA               55 55N  021 03E   10   X                6 LT
   SIAULIAI INTL    EYSA               55 54N  023 24E  135   X     T          6 LT
   VILNIUS INTL     EYVI        26730  54 38N  025 17E  197   X     T          6 LT
   KARDLA           EEKA        26116  58 59N  022 50E    4   X                8 EE
   KURESSAARE       EEKE               58 14N  022 31E    4   X                8 EE
   PARNU            EEPU               58 25N  024 28E   14   X                8 EE
   TALLINN          EETN        26038  59 24N  024 49E   40   X     T          8 EE
   TARTU            EETU               58 19N  026 41E   67   X                8 EE

rain/snow radar image from www.meteo.lv and METAR data from weather.noaa.gov